sensor_id;sensor_type;location;lat;lon;timestamp;pressure;altitude;pressure_sealevel;temperature;humidity
63097;BME280;49185;42.320;23.198;2023-05-03T00:00:42;95131.69;;;10.81;53.16
63097;BME280;49185;42.320;23.198;2023-05-03T00:03:08;95134.19;;;10.71;53.35
63097;BME280;49185;42.320;23.198;2023-05-03T00:05:33;95137.81;;;10.64;53.23
63097;BME280;49185;42.320;23.198;2023-05-03T00:07:59;95124.31;;;10.54;53.66
63097;BME280;49185;42.320;23.198;2023-05-03T00:10:24;95133.97;;;10.60;53.47
63097;BME280;49185;42.320;23.198;2023-05-03T00:12:49;95121.00;;;10.47;53.06
63097;BME280;49185;42.320;23.198;2023-05-03T00:15:15;95125.25;;;10.48;53.73
63097;BME280;49185;42.320;23.198;2023-05-03T00:17:41;95122.88;;;10.35;54.00
63097;BME280;49185;42.320;23.198;2023-05-03T00:20:06;95123.09;;;10.45;53.36
63097;BME280;49185;42.320;23.198;2023-05-03T00:22:32;95130.63;;;10.36;53.23
63097;BME280;49185;42.320;23.198;2023-05-03T00:24:58;95127.16;;;10.36;53.60
63097;BME280;49185;42.320;23.198;2023-05-03T00:27:24;95127.56;;;10.44;52.97
63097;BME280;49185;42.320;23.198;2023-05-03T00:29:50;95136.19;;;10.35;53.34
63097;BME280;49185;42.320;23.198;2023-05-03T00:32:16;95132.25;;;10.25;53.37
63097;BME280;49185;42.320;23.198;2023-05-03T00:34:41;95133.06;;;10.38;53.14
63097;BME280;49185;42.320;23.198;2023-05-03T00:37:06;95128.53;;;10.26;53.10
63097;BME280;49185;42.320;23.198;2023-05-03T00:39:32;95114.22;;;10.39;52.46
63097;BME280;49185;42.320;23.198;2023-05-03T00:41:58;95090.63;;;10.60;52.23
63097;BME280;49185;42.320;23.198;2023-05-03T00:44:24;95093.72;;;10.28;53.16
63097;BME280;49185;42.320;23.198;2023-05-03T00:46:50;95100.16;;;10.15;53.24
63097;BME280;49185;42.320;23.198;2023-05-03T00:49:15;95089.50;;;10.15;53.85
63097;BME280;49185;42.320;23.198;2023-05-03T00:51:41;95078.75;;;10.22;53.24
63097;BME280;49185;42.320;23.198;2023-05-03T00:54:07;95074.78;;;10.24;53.29
63097;BME280;49185;42.320;23.198;2023-05-03T00:56:33;95076.31;;;10.20;53.95
63097;BME280;49185;42.320;23.198;2023-05-03T00:59:00;95086.66;;;10.05;54.11
63097;BME280;49185;42.320;23.198;2023-05-03T01:01:26;95071.22;;;10.19;53.04
63097;BME280;49185;42.320;23.198;2023-05-03T01:03:51;95076.13;;;10.39;53.03
63097;BME280;49185;42.320;23.198;2023-05-03T01:14:57;95079.09;;;9.85;54.94
63097;BME280;49185;42.320;23.198;2023-05-03T01:17:27;95083.59;;;9.84;54.12
63097;BME280;49185;42.320;23.198;2023-05-03T01:19:57;95087.53;;;9.70;54.50
63097;BME280;49185;42.320;23.198;2023-05-03T01:22:49;95087.09;;;9.61;54.48
63097;BME280;49185;42.320;23.198;2023-05-03T01:25:19;95085.94;;;9.69;54.59
63097;BME280;49185;42.320;23.198;2023-05-03T01:27:45;95077.28;;;9.62;54.51
63097;BME280;49185;42.320;23.198;2023-05-03T01:30:11;95083.06;;;9.59;54.72
63097;BME280;49185;42.320;23.198;2023-05-03T01:35:59;95065.97;;;9.43;55.18
63097;BME280;49185;42.320;23.198;2023-05-03T01:38:29;95073.72;;;9.56;54.62
63097;BME280;49185;42.320;23.198;2023-05-03T01:40:59;95073.72;;;9.56;54.54
63097;BME280;49185;42.320;23.198;2023-05-03T01:43:28;95074.13;;;9.65;54.96
63097;BME280;49185;42.320;23.198;2023-05-03T01:45:54;95078.31;;;9.61;54.72
63097;BME280;49185;42.320;23.198;2023-05-03T01:48:19;95068.63;;;9.55;55.49
63097;BME280;49185;42.320;23.198;2023-05-03T01:50:45;95070.13;;;9.62;54.00
63097;BME280;49185;42.320;23.198;2023-05-03T01:53:11;95066.72;;;9.79;53.67
63097;BME280;49185;42.320;23.198;2023-05-03T01:55:36;95068.16;;;9.58;54.51
63097;BME280;49185;42.320;23.198;2023-05-03T01:58:02;95061.69;;;10.06;53.49
63097;BME280;49185;42.320;23.198;2023-05-03T02:00:27;95061.84;;;9.87;53.44
63097;BME280;49185;42.320;23.198;2023-05-03T02:02:53;95045.53;;;9.55;54.20
63097;BME280;49185;42.320;23.198;2023-05-03T02:05:18;95042.13;;;9.83;54.14
63097;BME280;49185;42.320;23.198;2023-05-03T02:07:44;95036.59;;;9.61;54.51
63097;BME280;49185;42.320;23.198;2023-05-03T02:10:09;95042.66;;;9.57;54.75
63097;BME280;49185;42.320;23.198;2023-05-03T02:12:35;95046.44;;;9.61;54.48
63097;BME280;49185;42.320;23.198;2023-05-03T02:15:00;95043.75;;;9.73;54.17
63097;BME280;49185;42.320;23.198;2023-05-03T02:17:26;95040.03;;;9.74;54.45
63097;BME280;49185;42.320;23.198;2023-05-03T02:19:52;95039.09;;;9.92;53.98
63097;BME280;49185;42.320;23.198;2023-05-03T02:22:17;95043.44;;;9.45;55.75
63097;BME280;49185;42.320;23.198;2023-05-03T02:24:42;95040.56;;;9.47;55.13
63097;BME280;49185;42.320;23.198;2023-05-03T02:27:08;95029.75;;;9.77;54.61
63097;BME280;49185;42.320;23.198;2023-05-03T02:29:33;95022.47;;;9.84;53.98
63097;BME280;49185;42.320;23.198;2023-05-03T02:31:59;95037.66;;;9.72;53.94
63097;BME280;49185;42.320;23.198;2023-05-03T02:34:25;95035.59;;;9.62;54.62
63097;BME280;49185;42.320;23.198;2023-05-03T02:36:51;95045.19;;;9.63;55.27
63097;BME280;49185;42.320;23.198;2023-05-03T02:39:16;95051.28;;;9.64;55.05
63097;BME280;49185;42.320;23.198;2023-05-03T02:41:42;95052.84;;;9.88;53.80
63097;BME280;49185;42.320;23.198;2023-05-03T02:44:07;95056.19;;;9.96;53.69
63097;BME280;49185;42.320;23.198;2023-05-03T02:46:32;95067.13;;;9.99;53.56
63097;BME280;49185;42.320;23.198;2023-05-03T02:48:58;95054.97;;;9.63;54.01
63097;BME280;49185;42.320;23.198;2023-05-03T02:51:23;95065.47;;;9.69;53.67
63097;BME280;49185;42.320;23.198;2023-05-03T02:53:49;95060.03;;;9.76;54.42
63097;BME280;49185;42.320;23.198;2023-05-03T02:56:14;95061.69;;;10.06;53.58
63097;BME280;49185;42.320;23.198;2023-05-03T02:58:40;95062.41;;;9.89;54.12
63097;BME280;49185;42.320;23.198;2023-05-03T03:01:05;95055.72;;;9.99;53.22
63097;BME280;49185;42.320;23.198;2023-05-03T03:03:31;95047.63;;;9.94;53.42
63097;BME280;49185;42.320;23.198;2023-05-03T03:05:56;95069.00;;;9.99;53.44
63097;BME280;49185;42.320;23.198;2023-05-03T03:08:22;95059.59;;;10.08;52.24
63097;BME280;49185;42.320;23.198;2023-05-03T03:10:47;95055.66;;;10.11;52.79
63097;BME280;49185;42.320;23.198;2023-05-03T03:13:13;95066.94;;;9.89;53.31
63097;BME280;49185;42.320;23.198;2023-05-03T03:15:38;95072.16;;;9.84;52.52
63097;BME280;49185;42.320;23.198;2023-05-03T03:18:04;95063.59;;;9.94;52.51
63097;BME280;49185;42.320;23.198;2023-05-03T03:20:29;95068.13;;;10.10;52.00
63097;BME280;49185;42.320;23.198;2023-05-03T03:22:55;95073.56;;;10.15;51.58
63097;BME280;49185;42.320;23.198;2023-05-03T03:25:21;95066.72;;;10.19;51.09
63097;BME280;49185;42.320;23.198;2023-05-03T03:27:46;95071.81;;;10.09;51.46
63097;BME280;49185;42.320;23.198;2023-05-03T03:30:12;95074.53;;;9.97;51.92
63097;BME280;49185;42.320;23.198;2023-05-03T03:32:37;95079.38;;;10.00;52.13
63097;BME280;49185;42.320;23.198;2023-05-03T03:35:03;95085.41;;;9.96;52.57
63097;BME280;49185;42.320;23.198;2023-05-03T03:37:28;95093.28;;;9.91;52.36
63097;BME280;49185;42.320;23.198;2023-05-03T03:39:54;95103.91;;;9.91;52.68
63097;BME280;49185;42.320;23.198;2023-05-03T03:42:19;95114.84;;;10.06;51.60
63097;BME280;49185;42.320;23.198;2023-05-03T03:44:45;95125.75;;;9.81;52.58
63097;BME280;49185;42.320;23.198;2023-05-03T03:47:10;95130.47;;;9.91;51.83
63097;BME280;49185;42.320;23.198;2023-05-03T03:49:35;95139.06;;;9.69;52.81
63097;BME280;49185;42.320;23.198;2023-05-03T03:52:01;95142.06;;;9.61;52.78
63097;BME280;49185;42.320;23.198;2023-05-03T03:54:26;95145.81;;;10.00;51.91
63097;BME280;49185;42.320;23.198;2023-05-03T03:56:52;95148.97;;;9.97;51.59
63097;BME280;49185;42.320;23.198;2023-05-03T03:59:17;95153.59;;;9.78;52.06
63097;BME280;49185;42.320;23.198;2023-05-03T04:01:42;95150.38;;;9.88;52.09
63097;BME280;49185;42.320;23.198;2023-05-03T04:04:08;95151.19;;;9.88;52.16
63097;BME280;49185;42.320;23.198;2023-05-03T04:06:34;95142.25;;;9.95;52.73
63097;BME280;49185;42.320;23.198;2023-05-03T04:08:59;95149.44;;;9.82;52.47
63097;BME280;49185;42.320;23.198;2023-05-03T04:11:24;95149.56;;;9.87;51.83
63097;BME280;49185;42.320;23.198;2023-05-03T04:13:50;95139.41;;;9.84;53.08
63097;BME280;49185;42.320;23.198;2023-05-03T04:16:15;95133.72;;;9.93;52.77
63097;BME280;49185;42.320;23.198;2023-05-03T04:18:41;95133.25;;;9.96;52.58
63097;BME280;49185;42.320;23.198;2023-05-03T04:21:06;95132.19;;;9.97;52.93
63097;BME280;49185;42.320;23.198;2023-05-03T04:23:31;95145.75;;;9.95;52.95
63097;BME280;49185;42.320;23.198;2023-05-03T04:25:57;95169.78;;;9.88;53.25
63097;BME280;49185;42.320;23.198;2023-05-03T04:28:22;95175.09;;;9.88;53.88
63097;BME280;49185;42.320;23.198;2023-05-03T04:30:48;95175.31;;;9.99;53.19
63097;BME280;49185;42.320;23.198;2023-05-03T04:33:13;95178.41;;;10.31;52.51
63097;BME280;49185;42.320;23.198;2023-05-03T04:35:39;95180.00;;;10.32;53.51
63097;BME280;49185;42.320;23.198;2023-05-03T04:38:04;95192.59;;;10.37;51.46
63097;BME280;49185;42.320;23.198;2023-05-03T04:40:30;95189.25;;;10.41;52.08
63097;BME280;49185;42.320;23.198;2023-05-03T04:42:55;95192.13;;;10.52;51.51
63097;BME280;49185;42.320;23.198;2023-05-03T04:45:21;95187.81;;;10.51;52.18
63097;BME280;49185;42.320;23.198;2023-05-03T04:47:46;95195.97;;;9.97;53.81
63097;BME280;49185;42.320;23.198;2023-05-03T04:50:11;95207.78;;;9.89;54.24
63097;BME280;49185;42.320;23.198;2023-05-03T04:52:37;95203.50;;;10.12;53.78
63097;BME280;49185;42.320;23.198;2023-05-03T04:55:02;95215.28;;;9.80;54.69
63097;BME280;49185;42.320;23.198;2023-05-03T04:57:28;95202.94;;;9.98;54.07
63097;BME280;49185;42.320;23.198;2023-05-03T04:59:53;95215.19;;;9.99;54.63
63097;BME280;49185;42.320;23.198;2023-05-03T05:02:19;95210.09;;;9.74;56.28
63097;BME280;49185;42.320;23.198;2023-05-03T05:04:44;95213.56;;;9.74;55.63
63097;BME280;49185;42.320;23.198;2023-05-03T05:07:11;95214.00;;;9.95;54.14
63097;BME280;49185;42.320;23.198;2023-05-03T05:09:37;95213.00;;;9.96;55.04
63097;BME280;49185;42.320;23.198;2023-05-03T05:12:02;95224.66;;;10.06;54.74
63097;BME280;49185;42.320;23.198;2023-05-03T05:14:29;95226.63;;;9.76;56.34
63097;BME280;49185;42.320;23.198;2023-05-03T05:16:55;95238.63;;;9.55;56.96
63097;BME280;49185;42.320;23.198;2023-05-03T05:19:20;95235.13;;;9.54;56.81
63097;BME280;49185;42.320;23.198;2023-05-03T05:21:46;95234.72;;;9.69;56.20
63097;BME280;49185;42.320;23.198;2023-05-03T05:24:11;95227.78;;;9.68;55.86
63097;BME280;49185;42.320;23.198;2023-05-03T05:26:37;95220.38;;;9.58;56.19
63097;BME280;49185;42.320;23.198;2023-05-03T05:29:02;95225.56;;;9.77;55.94
63097;BME280;49185;42.320;23.198;2023-05-03T05:31:28;95211.59;;;10.05;55.45
63097;BME280;49185;42.320;23.198;2023-05-03T05:33:53;95208.25;;;9.86;55.62
63097;BME280;49185;42.320;23.198;2023-05-03T05:36:19;95207.56;;;9.91;54.83
63097;BME280;49185;42.320;23.198;2023-05-03T05:38:44;95190.31;;;9.93;55.29
63097;BME280;49185;42.320;23.198;2023-05-03T05:41:09;95185.34;;;10.20;54.21
63097;BME280;49185;42.320;23.198;2023-05-03T05:43:35;95187.19;;;10.20;55.08
63097;BME280;49185;42.320;23.198;2023-05-03T05:46:00;95171.06;;;10.50;53.64
63097;BME280;49185;42.320;23.198;2023-05-03T05:48:26;95173.19;;;10.13;54.65
63097;BME280;49185;42.320;23.198;2023-05-03T05:50:51;95180.38;;;10.36;55.04
63097;BME280;49185;42.320;23.198;2023-05-03T05:53:17;95167.41;;;10.16;55.00
63097;BME280;49185;42.320;23.198;2023-05-03T05:55:42;95165.75;;;10.26;54.40
63097;BME280;49185;42.320;23.198;2023-05-03T05:58:08;95172.63;;;10.34;54.21
63097;BME280;49185;42.320;23.198;2023-05-03T06:00:33;95175.38;;;10.16;55.17
63097;BME280;49185;42.320;23.198;2023-05-03T06:02:59;95197.13;;;10.13;55.49
63097;BME280;49185;42.320;23.198;2023-05-03T06:05:24;95203.97;;;9.97;55.11
63097;BME280;49185;42.320;23.198;2023-05-03T06:07:50;95198.41;;;9.98;55.22
63097;BME280;49185;42.320;23.198;2023-05-03T06:10:15;95201.66;;;9.88;55.97
63097;BME280;49185;42.320;23.198;2023-05-03T06:12:40;95196.69;;;9.92;56.49
63097;BME280;49185;42.320;23.198;2023-05-03T06:15:06;95197.16;;;10.01;55.98
63097;BME280;49185;42.320;23.198;2023-05-03T06:17:32;95189.75;;;10.03;55.77
63097;BME280;49185;42.320;23.198;2023-05-03T06:19:57;95187.13;;;10.55;54.96
63097;BME280;49185;42.320;23.198;2023-05-03T06:22:23;95180.59;;;10.22;56.31
63097;BME280;49185;42.320;23.198;2023-05-03T06:24:49;95192.94;;;10.29;55.77
63097;BME280;49185;42.320;23.198;2023-05-03T06:27:14;95190.94;;;9.95;55.92
63097;BME280;49185;42.320;23.198;2023-05-03T06:29:40;95186.97;;;9.86;56.84
63097;BME280;49185;42.320;23.198;2023-05-03T06:32:05;95183.34;;;10.27;56.18
63097;BME280;49185;42.320;23.198;2023-05-03T06:34:31;95174.81;;;10.25;56.42
63097;BME280;49185;42.320;23.198;2023-05-03T06:36:56;95178.50;;;10.65;55.49
63097;BME280;49185;42.320;23.198;2023-05-03T06:39:21;95170.84;;;10.40;54.83
63097;BME280;49185;42.320;23.198;2023-05-03T06:41:47;95176.47;;;10.55;54.55
63097;BME280;49185;42.320;23.198;2023-05-03T06:44:12;95186.84;;;10.69;54.68
63097;BME280;49185;42.320;23.198;2023-05-03T06:46:38;95181.41;;;10.63;54.16
63097;BME280;49185;42.320;23.198;2023-05-03T06:49:03;95184.94;;;10.52;54.86
63097;BME280;49185;42.320;23.198;2023-05-03T06:51:28;95181.81;;;10.84;54.52
63097;BME280;49185;42.320;23.198;2023-05-03T06:53:54;95180.47;;;11.15;54.09
63097;BME280;49185;42.320;23.198;2023-05-03T06:56:20;95180.56;;;11.37;53.61
63097;BME280;49185;42.320;23.198;2023-05-03T06:58:46;95189.44;;;11.43;52.74
63097;BME280;49185;42.320;23.198;2023-05-03T07:01:12;95186.03;;;11.82;52.87
63097;BME280;49185;42.320;23.198;2023-05-03T07:03:37;95180.41;;;11.44;53.55
63097;BME280;49185;42.320;23.198;2023-05-03T07:06:03;95184.91;;;11.94;52.54
63097;BME280;49185;42.320;23.198;2023-05-03T07:08:29;95181.50;;;11.99;51.65
63097;BME280;49185;42.320;23.198;2023-05-03T07:10:54;95173.63;;;12.53;51.40
63097;BME280;49185;42.320;23.198;2023-05-03T07:13:20;95164.84;;;12.31;51.35
63097;BME280;49185;42.320;23.198;2023-05-03T07:15:45;95172.06;;;11.74;53.15
63097;BME280;49185;42.320;23.198;2023-05-03T07:18:11;95172.19;;;12.02;53.83
63097;BME280;49185;42.320;23.198;2023-05-03T07:20:36;95179.31;;;12.13;53.87
63097;BME280;49185;42.320;23.198;2023-05-03T07:23:02;95179.31;;;12.35;52.20
63097;BME280;49185;42.320;23.198;2023-05-03T07:25:27;95183.75;;;12.51;51.42
63097;BME280;49185;42.320;23.198;2023-05-03T07:27:52;95184.47;;;13.18;50.71
63097;BME280;49185;42.320;23.198;2023-05-03T07:30:18;95186.06;;;12.92;49.74
63097;BME280;49185;42.320;23.198;2023-05-03T07:32:43;95189.66;;;12.76;50.57
63097;BME280;49185;42.320;23.198;2023-05-03T07:35:09;95196.44;;;12.61;52.10
63097;BME280;49185;42.320;23.198;2023-05-03T07:37:34;95190.41;;;12.98;51.70
63097;BME280;49185;42.320;23.198;2023-05-03T07:40:00;95187.94;;;13.19;50.25
63097;BME280;49185;42.320;23.198;2023-05-03T07:42:25;95197.03;;;12.24;54.02
63097;BME280;49185;42.320;23.198;2023-05-03T07:44:51;95195.69;;;12.44;52.09
63097;BME280;49185;42.320;23.198;2023-05-03T07:47:16;95199.41;;;13.14;50.83
63097;BME280;49185;42.320;23.198;2023-05-03T07:49:42;95198.31;;;12.61;53.40
63097;BME280;49185;42.320;23.198;2023-05-03T07:52:07;95209.38;;;13.51;51.51
63097;BME280;49185;42.320;23.198;2023-05-03T07:54:33;95210.28;;;13.35;51.02
63097;BME280;49185;42.320;23.198;2023-05-03T07:56:58;95210.03;;;13.09;52.19
63097;BME280;49185;42.320;23.198;2023-05-03T07:59:24;95207.34;;;13.68;49.84
63097;BME280;49185;42.320;23.198;2023-05-03T08:01:49;95220.91;;;13.94;50.28
63097;BME280;49185;42.320;23.198;2023-05-03T08:04:15;95230.00;;;13.93;50.63
63097;BME280;49185;42.320;23.198;2023-05-03T08:06:40;95226.84;;;14.01;49.32
63097;BME280;49185;42.320;23.198;2023-05-03T08:09:06;95238.47;;;13.80;49.79
63097;BME280;49185;42.320;23.198;2023-05-03T08:11:31;95237.88;;;13.40;52.27
63097;BME280;49185;42.320;23.198;2023-05-03T08:13:56;95240.09;;;12.99;52.34
63097;BME280;49185;42.320;23.198;2023-05-03T08:16:22;95245.28;;;12.84;54.08
63097;BME280;49185;42.320;23.198;2023-05-03T08:18:47;95238.69;;;12.69;54.54
63097;BME280;49185;42.320;23.198;2023-05-03T08:21:14;95232.91;;;13.27;52.50
63097;BME280;49185;42.320;23.198;2023-05-03T08:23:39;95236.00;;;13.73;51.31
63097;BME280;49185;42.320;23.198;2023-05-03T08:26:05;95229.09;;;13.18;52.88
63097;BME280;49185;42.320;23.198;2023-05-03T08:28:30;95216.22;;;13.42;53.09
63097;BME280;49185;42.320;23.198;2023-05-03T08:30:55;95220.50;;;13.75;50.24
63097;BME280;49185;42.320;23.198;2023-05-03T08:33:21;95201.91;;;14.38;49.50
63097;BME280;49185;42.320;23.198;2023-05-03T08:35:46;95214.09;;;14.61;48.51
63097;BME280;49185;42.320;23.198;2023-05-03T08:38:12;95211.16;;;14.63;48.08
63097;BME280;49185;42.320;23.198;2023-05-03T08:40:37;95206.97;;;14.98;47.11
63097;BME280;49185;42.320;23.198;2023-05-03T08:43:07;95199.25;;;15.27;45.92
63097;BME280;49185;42.320;23.198;2023-05-03T08:45:33;95200.78;;;14.92;47.18
63097;BME280;49185;42.320;23.198;2023-05-03T08:47:59;95199.66;;;14.20;49.16
63097;BME280;49185;42.320;23.198;2023-05-03T08:50:24;95187.66;;;14.28;49.38
63097;BME280;49185;42.320;23.198;2023-05-03T08:52:50;95179.47;;;14.50;48.88
63097;BME280;49185;42.320;23.198;2023-05-03T08:55:15;95180.81;;;14.52;49.59
63097;BME280;49185;42.320;23.198;2023-05-03T08:57:41;95178.59;;;15.23;47.67
63097;BME280;49185;42.320;23.198;2023-05-03T09:00:06;95167.25;;;17.38;43.58
63097;BME280;49185;42.320;23.198;2023-05-03T09:02:32;95167.31;;;17.28;43.14
63097;BME280;49185;42.320;23.198;2023-05-03T09:04:58;95160.22;;;16.43;44.97
63097;BME280;49185;42.320;23.198;2023-05-03T09:07:23;95152.06;;;15.16;49.87
63097;BME280;49185;42.320;23.198;2023-05-03T09:09:49;95156.63;;;15.41;47.71
63097;BME280;49185;42.320;23.198;2023-05-03T09:12:35;95153.16;;;15.25;48.42
63097;BME280;49185;42.320;23.198;2023-05-03T09:15:01;95146.19;;;15.34;48.76
63097;BME280;49185;42.320;23.198;2023-05-03T09:17:27;95145.34;;;15.13;48.91
63097;BME280;49185;42.320;23.198;2023-05-03T09:19:55;95138.94;;;15.35;48.64
63097;BME280;49185;42.320;23.198;2023-05-03T09:22:26;95140.03;;;15.39;49.02
63097;BME280;49185;42.320;23.198;2023-05-03T09:24:57;95144.56;;;15.59;48.97
63097;BME280;49185;42.320;23.198;2023-05-03T09:27:24;95142.44;;;15.35;47.62
63097;BME280;49185;42.320;23.198;2023-05-03T09:29:50;95147.50;;;15.42;47.45
63097;BME280;49185;42.320;23.198;2023-05-03T09:32:16;95148.88;;;15.60;47.76
63097;BME280;49185;42.320;23.198;2023-05-03T09:34:43;95161.47;;;15.75;48.32
63097;BME280;49185;42.320;23.198;2023-05-03T09:37:09;95160.88;;;16.09;47.70
63097;BME280;49185;42.320;23.198;2023-05-03T09:39:34;95164.28;;;16.35;47.98
63097;BME280;49185;42.320;23.198;2023-05-03T09:42:13;95156.00;;;16.26;49.07
63097;BME280;49185;42.320;23.198;2023-05-03T09:44:43;95134.09;;;15.73;46.73
63097;BME280;49185;42.320;23.198;2023-05-03T09:47:09;95127.34;;;16.06;46.92
63097;BME280;49185;42.320;23.198;2023-05-03T09:49:35;95127.63;;;15.74;47.60
63097;BME280;49185;42.320;23.198;2023-05-03T09:52:01;95133.31;;;15.78;47.49
63097;BME280;49185;42.320;23.198;2023-05-03T09:54:27;95145.88;;;16.08;47.64
63097;BME280;49185;42.320;23.198;2023-05-03T09:56:53;95141.44;;;16.38;46.91
63097;BME280;49185;42.320;23.198;2023-05-03T09:59:19;95138.38;;;16.70;48.02
63097;BME280;49185;42.320;23.198;2023-05-03T10:01:44;95132.25;;;17.09;46.55
63097;BME280;49185;42.320;23.198;2023-05-03T10:04:10;95131.09;;;16.70;46.22
63097;BME280;49185;42.320;23.198;2023-05-03T10:06:40;95138.09;;;15.91;47.93
63097;BME280;49185;42.320;23.198;2023-05-03T10:09:19;95134.91;;;15.84;48.57
63097;BME280;49185;42.320;23.198;2023-05-03T10:11:51;95127.94;;;15.78;48.74
63097;BME280;49185;42.320;23.198;2023-05-03T10:14:20;95133.84;;;15.54;49.48
63097;BME280;49185;42.320;23.198;2023-05-03T10:17:00;95127.69;;;15.53;48.88
63097;BME280;49185;42.320;23.198;2023-05-03T10:19:46;95122.03;;;15.45;48.95
63097;BME280;49185;42.320;23.198;2023-05-03T10:22:13;95113.44;;;15.63;50.00
63097;BME280;49185;42.320;23.198;2023-05-03T10:30:27;95105.59;;;16.13;48.68
63097;BME280;49185;42.320;23.198;2023-05-03T10:32:52;95112.09;;;14.89;51.33
63097;BME280;49185;42.320;23.198;2023-05-03T10:35:18;95121.16;;;14.62;53.37
63097;BME280;49185;42.320;23.198;2023-05-03T10:37:43;95119.31;;;14.73;52.63
63097;BME280;49185;42.320;23.198;2023-05-03T10:42:43;95119.41;;;14.30;53.95
63097;BME280;49185;42.320;23.198;2023-05-03T10:45:19;95113.28;;;14.30;54.12
63097;BME280;49185;42.320;23.198;2023-05-03T10:50:39;95109.97;;;15.83;50.37
63097;BME280;49185;42.320;23.198;2023-05-03T10:53:04;95113.34;;;16.09;50.30
63097;BME280;49185;42.320;23.198;2023-05-03T10:55:31;95110.09;;;16.28;49.25
63097;BME280;49185;42.320;23.198;2023-05-03T10:57:57;95101.63;;;16.50;49.32
63097;BME280;49185;42.320;23.198;2023-05-03T11:00:28;95097.56;;;17.07;48.27
63097;BME280;49185;42.320;23.198;2023-05-03T11:05:58;95090.72;;;16.91;47.46
63097;BME280;49185;42.320;23.198;2023-05-03T11:08:24;95077.13;;;17.06;47.56
63097;BME280;49185;42.320;23.198;2023-05-03T11:10:56;95087.59;;;16.68;48.26
63097;BME280;49185;42.320;23.198;2023-05-03T11:13:21;95073.56;;;17.16;48.06
63097;BME280;49185;42.320;23.198;2023-05-03T11:15:47;95081.66;;;17.16;47.64
63097;BME280;49185;42.320;23.198;2023-05-03T11:18:12;95057.72;;;17.73;45.83
63097;BME280;49185;42.320;23.198;2023-05-03T11:20:38;95053.25;;;19.45;43.08
63097;BME280;49185;42.320;23.198;2023-05-03T11:23:04;95047.38;;;19.57;42.07
63097;BME280;49185;42.320;23.198;2023-05-03T11:25:30;95048.78;;;19.68;42.07
63097;BME280;49185;42.320;23.198;2023-05-03T11:27:55;95042.78;;;19.57;41.50
63097;BME280;49185;42.320;23.198;2023-05-03T11:30:21;95033.16;;;19.65;43.09
63097;BME280;49185;42.320;23.198;2023-05-03T11:32:46;95036.06;;;20.65;39.92
63097;BME280;49185;42.320;23.198;2023-05-03T11:35:12;95028.81;;;20.10;41.09
63097;BME280;49185;42.320;23.198;2023-05-03T11:37:38;95027.84;;;20.93;37.69
63097;BME280;49185;42.320;23.198;2023-05-03T11:40:05;95019.16;;;20.46;40.71
63097;BME280;49185;42.320;23.198;2023-05-03T11:42:31;95021.66;;;18.42;43.98
63097;BME280;49185;42.320;23.198;2023-05-03T11:44:56;95026.69;;;18.05;45.25
63097;BME280;49185;42.320;23.198;2023-05-03T11:47:22;95017.13;;;17.40;46.96
63097;BME280;49185;42.320;23.198;2023-05-03T11:49:54;95013.16;;;17.38;46.61
63097;BME280;49185;42.320;23.198;2023-05-03T11:52:24;95016.06;;;17.12;48.00
63097;BME280;49185;42.320;23.198;2023-05-03T11:54:50;95017.00;;;16.58;49.75
63097;BME280;49185;42.320;23.198;2023-05-03T11:57:16;95010.09;;;16.41;50.50
63097;BME280;49185;42.320;23.198;2023-05-03T11:59:42;95014.16;;;15.84;52.37
63097;BME280;49185;42.320;23.198;2023-05-03T12:02:08;95022.41;;;16.03;52.82
63097;BME280;49185;42.320;23.198;2023-05-03T12:04:38;95024.16;;;15.52;53.59
63097;BME280;49185;42.320;23.198;2023-05-03T12:07:04;95027.63;;;15.58;53.57
63097;BME280;49185;42.320;23.198;2023-05-03T12:09:29;95019.13;;;15.25;53.85
63097;BME280;49185;42.320;23.198;2023-05-03T12:11:55;95028.22;;;15.19;54.01
63097;BME280;49185;42.320;23.198;2023-05-03T12:14:21;95030.13;;;14.77;55.25
63097;BME280;49185;42.320;23.198;2023-05-03T12:16:48;95020.44;;;14.56;55.94
63097;BME280;49185;42.320;23.198;2023-05-03T12:19:28;95023.97;;;14.67;56.04
63097;BME280;49185;42.320;23.198;2023-05-03T12:21:54;95018.34;;;14.58;57.02
63097;BME280;49185;42.320;23.198;2023-05-03T12:24:21;95025.28;;;14.69;56.21
63097;BME280;49185;42.320;23.198;2023-05-03T12:26:46;95026.84;;;14.50;57.53
63097;BME280;49185;42.320;23.198;2023-05-03T12:29:12;95017.44;;;14.32;56.88
63097;BME280;49185;42.320;23.198;2023-05-03T12:31:38;95020.75;;;14.65;55.99
63097;BME280;49185;42.320;23.198;2023-05-03T12:34:04;95027.56;;;14.14;57.65
63097;BME280;49185;42.320;23.198;2023-05-03T12:36:30;95036.38;;;13.99;58.42
63097;BME280;49185;42.320;23.198;2023-05-03T12:38:55;95039.00;;;13.89;58.28
63097;BME280;49185;42.320;23.198;2023-05-03T12:41:21;95049.47;;;13.43;59.66
63097;BME280;49185;42.320;23.198;2023-05-03T12:43:46;95074.47;;;13.26;60.90
63097;BME280;49185;42.320;23.198;2023-05-03T12:46:12;95088.03;;;13.20;61.72
63097;BME280;49185;42.320;23.198;2023-05-03T12:48:37;95093.13;;;12.62;67.23
63097;BME280;49185;42.320;23.198;2023-05-03T12:51:03;95061.53;;;12.26;70.81
63097;BME280;49185;42.320;23.198;2023-05-03T12:53:28;95056.06;;;12.38;71.67
63097;BME280;49185;42.320;23.198;2023-05-03T12:55:54;95059.28;;;12.13;76.11
63097;BME280;49185;42.320;23.198;2023-05-03T12:58:19;95064.63;;;12.13;75.62
63097;BME280;49185;42.320;23.198;2023-05-03T13:00:44;95053.78;;;11.81;82.60
63097;BME280;49185;42.320;23.198;2023-05-03T13:03:10;95047.81;;;12.67;80.34
63097;BME280;49185;42.320;23.198;2023-05-03T13:05:36;95040.91;;;13.03;77.80
63097;BME280;49185;42.320;23.198;2023-05-03T13:08:01;95047.75;;;12.62;82.41
63097;BME280;49185;42.320;23.198;2023-05-03T13:10:27;95063.59;;;12.41;79.19
63097;BME280;49185;42.320;23.198;2023-05-03T13:12:52;95059.94;;;12.25;80.41